createdAt,value
2018-05-29T00:01:23.055Z,98667.87
2018-05-29T00:03:51.342Z,98662.41
2018-05-29T00:06:19.618Z,98658.02
2018-05-29T00:08:47.925Z,98651.29
2018-05-29T00:11:16.187Z,98650.34
2018-05-29T00:13:44.477Z,98648.76
2018-05-29T00:16:12.764Z,98653.70
2018-05-29T00:18:41.250Z,98653.52
2018-05-29T00:21:09.525Z,98652.59
2018-05-29T00:23:37.833Z,98644.16
2018-05-29T00:26:06.117Z,98653.98
2018-05-29T00:28:34.417Z,98654.34
2018-05-29T00:31:03.615Z,98646.90
2018-05-29T00:33:31.931Z,98644.84
2018-05-29T00:36:00.620Z,98641.20
2018-05-29T00:38:29.829Z,98640.25
2018-05-29T00:40:58.218Z,98638.20
2018-05-29T00:43:26.557Z,98643.91
2018-05-29T00:45:54.834Z,98641.72
2018-05-29T00:48:23.102Z,98636.37
2018-05-29T00:50:51.410Z,98656.21
2018-05-29T00:53:19.694Z,98661.91
2018-05-29T00:55:47.999Z,98662.82
2018-05-29T00:58:16.277Z,98654.38
2018-05-29T01:00:44.569Z,98665.91
2018-05-29T01:03:12.842Z,98677.19
2018-05-29T01:05:41.138Z,98673.73
2018-05-29T01:08:09.422Z,98668.66
2018-05-29T01:10:37.757Z,98665.53
2018-05-29T01:13:07.526Z,98673.88
2018-05-29T01:15:35.883Z,98669.23
2018-05-29T01:18:05.424Z,98674.33
2018-05-29T01:20:33.725Z,98675.09
2018-05-29T01:23:02.008Z,98675.80
2018-05-29T01:25:30.603Z,98689.06
2018-05-29T01:27:59.538Z,98685.09
2018-05-29T01:30:27.829Z,98679.45
2018-05-29T01:32:56.101Z,98667.31
2018-05-29T01:35:24.410Z,98690.22
2018-05-29T01:37:52.906Z,98682.62
2018-05-29T01:40:21.177Z,98684.83
2018-05-29T01:42:49.478Z,98690.16
2018-05-29T01:45:17.745Z,98691.06
2018-05-29T01:47:46.035Z,98685.03
2018-05-29T01:50:14.301Z,98686.72
2018-05-29T01:52:42.620Z,98685.82
2018-05-29T01:55:10.873Z,98680.73
2018-05-29T01:57:39.754Z,98688.70
2018-05-29T02:00:08.038Z,98684.01
2018-05-29T02:02:36.345Z,98683.48
2018-05-29T02:05:04.937Z,98673.59
2018-05-29T02:07:33.310Z,98672.53
2018-05-29T02:10:01.608Z,98674.55
2018-05-29T02:12:29.929Z,98666.27
2018-05-29T02:14:58.670Z,98662.27
2018-05-29T02:17:27.074Z,98658.65
2018-05-29T02:19:55.355Z,98649.77
2018-05-29T02:22:23.886Z,98654.31
2018-05-29T02:24:52.160Z,98656.77
2018-05-29T02:27:20.463Z,98656.85
2018-05-29T02:29:49.162Z,98653.33
2018-05-29T02:32:17.459Z,98651.43
2018-05-29T02:34:45.738Z,98645.09
2018-05-29T02:37:14.271Z,98654.31
2018-05-29T02:39:43.175Z,98653.73
2018-05-29T02:42:11.442Z,98655.38
2018-05-29T02:44:39.745Z,98663.41
2018-05-29T02:47:08.023Z,98662.70
2018-05-29T02:49:36.945Z,98665.03
2018-05-29T02:52:05.679Z,98672.53
2018-05-29T02:54:34.002Z,98685.17
2018-05-29T02:57:02.295Z,98682.98
2018-05-29T02:59:30.586Z,98690.70
2018-05-29T03:01:58.850Z,98693.98
2018-05-29T03:04:27.151Z,98695.41
2018-05-29T03:06:55.417Z,98689.30
2018-05-29T03:09:24.162Z,98682.70
2018-05-29T03:11:52.489Z,98683.97
2018-05-29T03:14:21.273Z,98680.48
2018-05-29T03:16:49.914Z,98678.69
2018-05-29T03:19:18.207Z,98683.46
2018-05-29T03:21:46.479Z,98692.17
2018-05-29T03:24:14.888Z,98690.75
2018-05-29T03:26:43.196Z,98691.98
2018-05-29T03:29:11.481Z,98696.96
2018-05-29T03:31:39.787Z,98703.70
2018-05-29T03:34:08.055Z,98714.11
2018-05-29T03:36:36.357Z,98715.06
2018-05-29T03:39:04.630Z,98712.27
2018-05-29T03:41:32.957Z,98712.56
2018-05-29T03:44:01.222Z,98707.98
2018-05-29T03:46:29.537Z,98706.63
2018-05-29T03:48:57.800Z,98709.58
2018-05-29T03:51:26.165Z,98708.48
2018-05-29T03:53:54.370Z,98711.53
2018-05-29T03:56:22.670Z,98715.19
2018-05-29T03:58:50.950Z,98707.69
2018-05-29T04:01:19.261Z,98713.41
2018-05-29T04:03:48.697Z,98709.42
2018-05-29T04:06:17.019Z,98704.89
2018-05-29T04:08:45.281Z,98705.29
2018-05-29T04:11:13.592Z,98709.76
2018-05-29T04:13:41.857Z,98710.34
2018-05-29T04:16:10.163Z,98709.57
2018-05-29T04:18:38.811Z,98710.73
2018-05-29T04:21:07.126Z,98705.05
2018-05-29T04:23:35.510Z,98705.73
2018-05-29T04:26:04.197Z,98708.41
2018-05-29T04:28:33.041Z,98710.84
2018-05-29T04:31:01.309Z,98705.97
2018-05-29T04:33:29.611Z,98702.05
2018-05-29T04:35:57.895Z,98706.81
2018-05-29T04:38:26.187Z,98700.17
2018-05-29T04:40:54.462Z,98701.29
2018-05-29T04:43:22.765Z,98708.24
2018-05-29T04:45:51.040Z,98709.73
2018-05-29T04:48:19.486Z,98716.75
2018-05-29T04:50:47.763Z,98722.75
2018-05-29T04:53:16.066Z,98717.83
2018-05-29T04:55:44.343Z,98707.69
2018-05-29T04:58:12.647Z,98715.56
2018-05-29T05:00:40.926Z,98719.09
2018-05-29T05:03:09.241Z,98716.30
2018-05-29T05:05:37.521Z,98707.45
2018-05-29T05:08:05.825Z,98716.01
2018-05-29T05:10:34.239Z,98717.14
2018-05-29T05:13:02.529Z,98723.45
2018-05-29T05:15:30.813Z,98725.86
2018-05-29T05:17:59.105Z,98732.23
2018-05-29T05:20:27.410Z,98731.41
2018-05-29T05:22:55.681Z,98734.02
2018-05-29T05:25:23.984Z,98742.32
2018-05-29T05:27:52.372Z,98742.53
2018-05-29T05:30:20.683Z,98735.04
2018-05-29T05:32:48.951Z,98738.45
2018-05-29T05:35:17.260Z,98733.23
2018-05-29T05:37:45.588Z,98731.47
2018-05-29T05:40:13.883Z,98730.56
2018-05-29T05:42:42.204Z,98725.09
2018-05-29T05:45:10.510Z,98726.54
2018-05-29T05:47:38.787Z,98718.28
2018-05-29T05:50:07.101Z,98721.31
2018-05-29T05:52:35.375Z,98718.14
2018-05-29T05:55:03.742Z,98728.19
2018-05-29T05:57:32.454Z,98729.98
2018-05-29T06:00:00.748Z,98732.17
2018-05-29T06:02:29.035Z,98732.87
2018-05-29T06:04:57.323Z,98724.73
2018-05-29T06:07:25.622Z,98726.81
2018-05-29T06:09:53.898Z,98729.14
2018-05-29T06:12:22.193Z,98727.45
2018-05-29T06:14:50.462Z,98730.33
2018-05-29T06:17:18.792Z,98725.12
2018-05-29T06:19:47.070Z,98721.86
2018-05-29T06:22:15.390Z,98728.34
2018-05-29T06:24:43.655Z,98728.30
2018-05-29T06:27:11.969Z,98740.74
2018-05-29T06:29:40.245Z,98730.58
2018-05-29T06:32:08.545Z,98740.84
2018-05-29T06:34:37.219Z,98749.77
2018-05-29T06:37:05.931Z,98751.95
2018-05-29T06:39:34.235Z,98745.45
2018-05-29T06:42:03.233Z,98748.11
2018-05-29T06:44:31.529Z,98740.45
2018-05-29T06:46:59.805Z,98735.58
2018-05-29T06:49:28.098Z,98737.84
2018-05-29T06:51:56.989Z,98745.41
2018-05-29T06:54:25.268Z,98746.88
2018-05-29T06:56:53.559Z,98735.38
2018-05-29T06:59:21.868Z,98741.31
2018-05-29T07:01:50.132Z,98744.88
2018-05-29T07:04:18.422Z,98742.81
2018-05-29T07:06:46.722Z,98744.69
2018-05-29T07:09:31.819Z,98747.61
2018-05-29T07:12:00.132Z,98734.06
2018-05-29T07:14:28.467Z,98738.50
2018-05-29T07:16:56.699Z,98730.66
2018-05-29T07:19:24.989Z,98729.41
2018-05-29T07:21:53.273Z,98726.50
2018-05-29T07:24:21.568Z,98736.02
2018-05-29T07:26:49.841Z,98737.79
2018-05-29T07:29:18.155Z,98737.75
2018-05-29T07:31:46.446Z,98732.25
2018-05-29T07:34:14.723Z,98727.02
2018-05-29T07:36:43.018Z,98655.48
2018-05-29T07:39:11.294Z,98724.64
2018-05-29T07:41:39.586Z,98711.47
2018-05-29T07:44:07.850Z,98713.56
2018-05-29T07:46:36.182Z,98712.15
2018-05-29T07:49:04.727Z,98703.39
2018-05-29T07:51:33.274Z,98704.19
2018-05-29T07:54:01.605Z,98715.70
2018-05-29T07:56:29.955Z,98720.38
2018-05-29T07:58:58.219Z,98721.11
2018-05-29T08:01:26.526Z,98720.03
2018-05-29T08:03:54.878Z,98716.94
2018-05-29T08:06:23.183Z,98730.81
2018-05-29T08:08:51.437Z,98735.23
2018-05-29T08:11:19.754Z,98729.30
2018-05-29T08:13:48.851Z,98732.92
2018-05-29T08:16:17.158Z,98738.38
2018-05-29T08:18:45.419Z,98727.66
2018-05-29T08:21:13.722Z,98728.73
2018-05-29T08:23:42.049Z,98737.16
2018-05-29T08:26:10.377Z,98736.69
2018-05-29T08:28:38.635Z,98731.02
2018-05-29T08:31:07.016Z,98729.89
2018-05-29T08:33:35.242Z,98728.17
2018-05-29T08:36:03.552Z,98723.64
2018-05-29T08:38:31.850Z,98715.98
2018-05-29T08:41:00.106Z,98717.86
2018-05-29T08:43:29.095Z,98717.95
2018-05-29T08:45:57.355Z,98724.80
2018-05-29T08:48:25.674Z,98722.82
2018-05-29T08:50:53.922Z,98716.15
2018-05-29T08:53:22.215Z,98724.50
2018-05-29T08:55:50.601Z,98718.04
2018-05-29T08:58:18.877Z,98719.47
2018-05-29T09:00:47.163Z,98728.02
2018-05-29T09:03:15.554Z,98725.75
2018-05-29T09:05:43.847Z,98714.07
2018-05-29T09:08:12.151Z,98718.70
2018-05-29T09:10:40.740Z,98717.39
2018-05-29T09:13:09.046Z,98725.05
2018-05-29T09:15:37.331Z,98719.72
2018-05-29T09:18:06.360Z,98724.97
2018-05-29T09:20:34.643Z,98722.66
2018-05-29T09:23:02.926Z,98728.53
2018-05-29T09:25:31.240Z,98725.90
2018-05-29T09:27:59.529Z,98725.55
2018-05-29T09:30:27.830Z,98733.22
2018-05-29T09:32:56.102Z,98724.59
2018-05-29T09:35:24.411Z,98733.27
2018-05-29T09:37:52.655Z,98732.06
2018-05-29T09:40:21.692Z,98735.11
2018-05-29T09:42:49.998Z,98736.94
2018-05-29T09:45:18.257Z,98719.26
2018-05-29T09:47:46.518Z,98733.67
2018-05-29T09:50:14.813Z,98745.90
2018-05-29T09:52:43.096Z,98750.44
2018-05-29T09:55:11.789Z,98745.16
2018-05-29T09:57:40.186Z,98748.70
2018-05-29T10:00:08.495Z,98751.45
2018-05-29T10:02:36.773Z,98744.59
2018-05-29T10:05:05.200Z,98744.31
2018-05-29T10:07:33.484Z,98740.47
2018-05-29T10:10:01.751Z,98744.03
2018-05-29T10:12:30.031Z,98744.33
2018-05-29T10:14:58.345Z,98747.14
2018-05-29T10:17:26.724Z,98740.80
2018-05-29T10:19:54.997Z,98746.02
2018-05-29T10:22:23.309Z,98748.30
2018-05-29T10:24:51.602Z,98749.61
2018-05-29T10:27:19.947Z,98743.48
2018-05-29T10:29:48.233Z,98749.48
2018-05-29T10:32:16.954Z,98748.72
2018-05-29T10:34:46.597Z,98750.80
2018-05-29T10:37:15.550Z,98751.41
2018-05-29T10:39:43.810Z,98752.81
2018-05-29T10:42:12.090Z,98754.67
2018-05-29T10:44:40.371Z,98761.23
2018-05-29T10:47:08.656Z,98757.84
2018-05-29T10:49:36.906Z,98745.50
2018-05-29T10:52:05.200Z,98761.84
2018-05-29T10:54:33.470Z,98752.17
2018-05-29T10:57:01.759Z,98757.45
2018-05-29T10:59:30.042Z,98753.00
2018-05-29T11:01:58.320Z,98747.77
2018-05-29T11:04:26.643Z,98751.59
2018-05-29T11:06:55.138Z,98749.17
2018-05-29T11:09:23.334Z,98743.94
2018-05-29T11:11:51.731Z,98740.99
2018-05-29T11:14:20.074Z,98745.20
2018-05-29T11:16:48.298Z,98744.36
2018-05-29T11:19:16.595Z,98746.42
2018-05-29T11:21:44.899Z,98752.72
2018-05-29T11:24:13.178Z,98755.34
2018-05-29T11:26:41.470Z,98752.47
2018-05-29T11:29:09.770Z,98755.37
2018-05-29T11:31:38.059Z,98752.90
2018-05-29T11:34:06.351Z,98752.39
2018-05-29T11:36:34.618Z,98749.80
2018-05-29T11:39:02.922Z,98752.06
2018-05-29T11:41:31.247Z,98748.86
2018-05-29T11:43:59.501Z,98756.52
2018-05-29T11:46:27.789Z,98754.46
2018-05-29T11:48:56.383Z,98753.67
2018-05-29T11:51:24.663Z,98758.22
2018-05-29T11:53:52.927Z,98754.91
2018-05-29T11:56:21.217Z,98759.44
2018-05-29T11:58:49.479Z,98761.81
2018-05-29T12:01:17.789Z,98752.99
2018-05-29T12:03:46.065Z,98755.72
2018-05-29T12:06:14.354Z,98773.03
2018-05-29T12:08:42.972Z,98765.17
2018-05-29T12:11:11.249Z,98766.94
2018-05-29T12:13:40.358Z,98756.19
2018-05-29T12:16:08.647Z,98749.60
2018-05-29T12:18:37.735Z,98747.77
2018-05-29T12:21:06.023Z,98743.13
2018-05-29T12:23:34.311Z,98748.22
2018-05-29T12:26:02.582Z,98753.55
2018-05-29T12:28:30.872Z,98753.45
2018-05-29T12:30:59.143Z,98750.81
2018-05-29T12:33:27.476Z,98747.12
2018-05-29T12:35:55.743Z,98741.73
2018-05-29T12:38:24.039Z,98737.68
2018-05-29T12:40:52.323Z,98732.75
2018-05-29T12:43:20.590Z,98729.77
2018-05-29T12:45:48.857Z,98731.94
2018-05-29T12:48:17.154Z,98722.98
2018-05-29T12:50:45.415Z,98719.63
2018-05-29T12:53:13.723Z,98723.50
2018-05-29T12:55:41.967Z,98718.20
2018-05-29T12:58:10.329Z,98716.13
2018-05-29T13:00:38.596Z,98720.08
2018-05-29T13:03:06.866Z,98716.47
2018-05-29T13:05:35.196Z,98732.50
2018-05-29T13:08:03.467Z,98730.86
2018-05-29T13:10:31.751Z,98722.77
2018-05-29T13:13:00.041Z,98722.97
2018-05-29T13:15:28.330Z,98710.47
2018-05-29T13:17:56.592Z,98720.52
2018-05-29T13:20:24.873Z,98719.68
2018-05-29T13:22:53.174Z,98727.64
2018-05-29T13:25:21.464Z,98723.22
2018-05-29T13:27:49.719Z,98726.08
2018-05-29T13:30:18.010Z,98724.61
2018-05-29T13:32:46.279Z,98725.83
2018-05-29T13:35:14.584Z,98727.44
2018-05-29T13:37:42.830Z,98725.89
2018-05-29T13:40:11.165Z,98725.52
2018-05-29T13:42:39.414Z,98731.07
2018-05-29T13:45:07.718Z,98722.62
2018-05-29T13:47:35.999Z,98725.59
2018-05-29T13:50:05.195Z,98720.00
2018-05-29T13:52:33.474Z,98717.33
2018-05-29T13:55:01.767Z,98724.44
2018-05-29T13:57:30.063Z,98717.56
2018-05-29T13:59:58.391Z,98719.86
2018-05-29T14:02:26.959Z,98712.59
2018-05-29T14:04:55.227Z,98703.28
2018-05-29T14:07:23.509Z,98683.48
2018-05-29T14:09:51.783Z,98697.87
2018-05-29T14:12:20.292Z,98700.02
2018-05-29T14:14:48.515Z,98695.00
2018-05-29T14:17:16.809Z,98689.11
2018-05-29T14:19:45.108Z,98691.38
2018-05-29T14:22:14.093Z,98686.65
2018-05-29T14:24:42.365Z,98684.42
2018-05-29T14:27:10.704Z,98672.75
2018-05-29T14:29:38.963Z,98679.33
2018-05-29T14:32:07.229Z,98677.95
2018-05-29T14:34:35.700Z,98670.68
2018-05-29T14:37:03.999Z,98660.31
2018-05-29T14:39:32.458Z,98676.48
2018-05-29T14:42:00.721Z,98664.05
2018-05-29T14:44:29.796Z,98662.75
2018-05-29T14:46:58.058Z,98667.09
2018-05-29T14:49:26.379Z,98667.79
2018-05-29T14:51:55.834Z,98669.89
2018-05-29T14:54:24.116Z,98664.80
2018-05-29T14:56:52.377Z,98662.79
2018-05-29T14:59:20.730Z,98659.98
2018-05-29T15:01:48.993Z,98667.66
2018-05-29T15:04:17.291Z,98667.18
2018-05-29T15:06:45.584Z,98669.44
2018-05-29T15:09:13.910Z,98662.97
2018-05-29T15:11:42.198Z,98647.81
2018-05-29T15:14:10.462Z,98661.28
2018-05-29T15:16:38.758Z,98665.39
2018-05-29T15:19:07.043Z,98663.27
2018-05-29T15:21:35.332Z,98659.42
2018-05-29T15:24:03.603Z,98668.88
2018-05-29T15:26:32.860Z,98666.45
2018-05-29T15:29:01.560Z,98668.56
2018-05-29T15:31:29.861Z,98661.20
2018-05-29T15:33:58.139Z,98662.69
2018-05-29T15:36:26.414Z,98669.97
2018-05-29T15:38:54.741Z,98668.92
2018-05-29T15:41:23.067Z,98666.95
2018-05-29T15:43:51.318Z,98667.06
2018-05-29T15:46:19.627Z,98654.27
2018-05-29T15:48:47.917Z,98661.48
2018-05-29T15:51:16.268Z,98658.11
2018-05-29T15:53:45.332Z,98639.33
2018-05-29T15:56:13.978Z,98659.41
2018-05-29T15:58:42.960Z,98639.52
2018-05-29T16:01:11.223Z,98638.78
2018-05-29T16:03:39.781Z,98635.80
2018-05-29T16:06:08.211Z,98628.56
2018-05-29T16:08:36.465Z,98630.34
2018-05-29T16:11:04.748Z,98621.87
2018-05-29T16:13:33.039Z,98623.08
2018-05-29T16:16:01.305Z,98615.88
2018-05-29T16:18:29.607Z,98622.08
2018-05-29T16:20:58.058Z,98622.95
2018-05-29T16:23:27.046Z,98615.94
2018-05-29T16:25:55.326Z,98608.48
2018-05-29T16:28:23.627Z,98607.20
2018-05-29T16:30:51.928Z,98603.70
2018-05-29T16:33:20.225Z,98590.72
2018-05-29T16:35:48.483Z,98605.94
2018-05-29T16:38:16.782Z,98608.41
2018-05-29T16:40:45.103Z,98612.07
2018-05-29T16:43:13.804Z,98603.63
2018-05-29T16:45:42.077Z,98609.90
2018-05-29T16:48:10.399Z,98608.27
2018-05-29T16:50:38.715Z,98597.63
2018-05-29T16:53:07.002Z,98614.09
2018-05-29T16:55:36.941Z,98605.64
2018-05-29T16:58:05.824Z,98609.77
2018-05-29T17:00:34.173Z,98610.40
2018-05-29T17:03:02.444Z,98610.52
2018-05-29T17:05:30.738Z,98618.88
2018-05-29T17:07:59.022Z,98605.76
2018-05-29T17:10:27.548Z,98612.00
2018-05-29T17:12:55.793Z,98615.22
2018-05-29T17:15:24.174Z,98615.44
2018-05-29T17:17:52.368Z,98617.08
2018-05-29T17:20:20.652Z,98614.11
2018-05-29T17:22:48.967Z,98627.77
2018-05-29T17:25:18.010Z,98623.72
2018-05-29T17:27:46.961Z,98621.52
2018-05-29T17:30:15.272Z,98627.78
2018-05-29T17:32:43.845Z,98621.30
2018-05-29T17:35:12.132Z,98615.25
2018-05-29T17:37:40.477Z,98618.70
2018-05-29T17:40:08.878Z,98613.08
2018-05-29T17:42:37.194Z,98623.70
2018-05-29T17:45:05.943Z,98623.78
2018-05-29T17:47:34.472Z,98624.16
2018-05-29T17:50:02.773Z,98627.17
2018-05-29T17:52:31.062Z,98635.31
2018-05-29T17:54:59.330Z,98633.19
2018-05-29T17:57:27.638Z,98626.28
2018-05-29T17:59:55.906Z,98620.41
2018-05-29T18:02:24.349Z,98618.78
2018-05-29T18:04:52.602Z,98621.23
2018-05-29T18:07:20.949Z,98617.30
2018-05-29T18:09:49.518Z,98616.38
2018-05-29T18:12:17.822Z,98616.26
2018-05-29T18:14:46.101Z,98611.48
2018-05-29T18:17:14.407Z,98613.75
2018-05-29T18:19:42.686Z,98471.41
2018-05-29T18:22:11.238Z,98625.70
2018-05-29T18:24:39.518Z,98630.06
2018-05-29T18:27:07.934Z,98627.16
2018-05-29T18:29:36.219Z,98632.59
2018-05-29T18:32:05.055Z,98638.84
2018-05-29T18:34:33.357Z,98633.50
2018-05-29T18:37:01.638Z,98639.15
2018-05-29T18:39:29.954Z,98636.42
2018-05-29T18:41:58.208Z,98643.19
2018-05-29T18:44:26.538Z,98649.02
2018-05-29T18:46:54.805Z,98646.70
2018-05-29T18:49:23.191Z,98642.66
2018-05-29T18:51:51.447Z,98645.06
2018-05-29T18:54:19.735Z,98648.18
2018-05-29T18:56:48.166Z,98644.20
2018-05-29T18:59:16.495Z,98638.48
2018-05-29T19:01:44.763Z,98643.64
2018-05-29T19:04:13.057Z,98643.36
2018-05-29T19:06:41.325Z,98640.89
2018-05-29T19:09:09.623Z,98640.73
2018-05-29T19:11:37.880Z,98647.66
2018-05-29T19:14:06.189Z,98645.06
2018-05-29T19:16:34.468Z,98645.65
2018-05-29T19:19:02.772Z,98648.75
2018-05-29T19:21:31.103Z,98650.01
2018-05-29T19:23:59.370Z,98656.16
2018-05-29T19:26:27.683Z,98660.95
2018-05-29T19:28:55.980Z,98662.16
2018-05-29T19:31:25.719Z,98662.33
2018-05-29T19:33:54.032Z,98662.72
2018-05-29T19:36:24.001Z,98659.81
2018-05-29T19:38:52.271Z,98668.92
2018-05-29T19:41:20.559Z,98673.00
2018-05-29T19:43:48.868Z,98677.86
2018-05-29T19:46:17.179Z,98674.55
2018-05-29T19:48:45.450Z,98673.56
2018-05-29T19:51:13.816Z,98678.61
2018-05-29T19:53:42.046Z,98677.54
2018-05-29T19:56:10.350Z,98676.91
2018-05-29T19:58:38.618Z,98679.55
2018-05-29T20:01:06.881Z,98680.52
2018-05-29T20:03:35.210Z,98682.20
2018-05-29T20:06:03.471Z,98675.71
2018-05-29T20:08:31.771Z,98675.84
2018-05-29T20:11:03.437Z,98682.09
2018-05-29T20:13:31.727Z,98691.33
2018-05-29T20:16:06.618Z,98688.89
2018-05-29T20:18:34.911Z,98687.94
2018-05-29T20:21:06.462Z,98696.97
2018-05-29T20:23:34.907Z,98700.58
2018-05-29T20:26:03.254Z,98699.96
2018-05-29T20:28:32.074Z,98693.05
2018-05-29T20:31:00.353Z,98691.69
2018-05-29T20:33:29.403Z,98689.13
2018-05-29T20:35:58.911Z,98692.11
2018-05-29T20:38:27.458Z,98694.92
2018-05-29T20:40:59.250Z,98689.94
2018-05-29T20:43:28.367Z,98694.29
2018-05-29T20:45:57.374Z,98694.29
2018-05-29T20:48:25.687Z,98695.59
2018-05-29T20:50:53.950Z,98689.77
2018-05-29T20:53:22.357Z,98689.92
2018-05-29T20:55:50.637Z,98691.25
2018-05-29T20:58:18.935Z,98693.97
2018-05-29T21:00:53.736Z,98680.48
2018-05-29T21:03:22.934Z,98686.72
2018-05-29T21:05:51.310Z,98685.68
2018-05-29T21:08:19.621Z,98682.29
2018-05-29T21:10:47.962Z,98679.63
2018-05-29T21:13:16.242Z,98674.61
2018-05-29T21:15:44.549Z,98679.20
2018-05-29T21:18:13.802Z,98683.16
2018-05-29T21:20:42.070Z,98681.99
2018-05-29T21:23:10.358Z,98689.13
2018-05-29T21:25:38.643Z,98686.89
2018-05-29T21:28:06.925Z,98685.72
2018-05-29T21:30:35.223Z,98674.96
2018-05-29T21:33:03.498Z,98690.09
2018-05-29T21:35:31.763Z,98692.99
2018-05-29T21:38:00.650Z,98691.36
2018-05-29T21:40:28.942Z,98695.91
2018-05-29T21:42:57.238Z,98690.19
2018-05-29T21:45:25.525Z,98685.70
2018-05-29T21:47:53.828Z,98686.91
2018-05-29T21:50:22.087Z,98683.30
2018-05-29T21:52:50.394Z,98680.95
2018-05-29T21:55:18.672Z,98683.25
2018-05-29T21:57:46.974Z,98679.17
2018-05-29T22:00:15.373Z,98678.06
2018-05-29T22:02:43.667Z,98681.87
2018-05-29T22:05:11.944Z,98683.88
2018-05-29T22:07:40.271Z,98682.23
2018-05-29T22:10:08.537Z,98678.56
2018-05-29T22:12:36.806Z,98683.32
2018-05-29T22:15:05.095Z,98673.81
2018-05-29T22:17:33.436Z,98686.66
2018-05-29T22:20:01.713Z,98688.98
2018-05-29T22:22:29.981Z,98689.31
2018-05-29T22:24:58.288Z,98688.98
2018-05-29T22:27:26.564Z,98686.10
2018-05-29T22:29:54.894Z,98692.70
2018-05-29T22:32:23.126Z,98694.20
2018-05-29T22:34:51.418Z,98700.01
2018-05-29T22:37:19.692Z,98700.28
2018-05-29T22:39:47.977Z,98700.83
2018-05-29T22:42:16.253Z,98708.06
2018-05-29T22:44:44.584Z,98719.61
2018-05-29T22:47:12.855Z,98718.30
2018-05-29T22:49:41.134Z,98720.89
2018-05-29T22:52:09.387Z,98716.14
2018-05-29T22:54:37.695Z,98715.16
2018-05-29T22:57:05.967Z,98714.67
2018-05-29T22:59:34.235Z,98720.03
2018-05-29T23:02:02.525Z,98716.59
2018-05-29T23:04:30.797Z,98719.64
2018-05-29T23:06:59.104Z,98712.21
2018-05-29T23:09:27.355Z,98720.03
2018-05-29T23:11:55.641Z,98716.02
2018-05-29T23:14:23.910Z,98717.84
2018-05-29T23:16:52.227Z,98718.69
2018-05-29T23:19:20.494Z,98722.63
2018-05-29T23:21:48.800Z,98719.84
2018-05-29T23:24:17.107Z,98726.63
2018-05-29T23:26:45.383Z,98724.94
2018-05-29T23:29:13.654Z,98724.59
2018-05-29T23:31:41.938Z,98726.02
2018-05-29T23:34:10.222Z,98730.09
2018-05-29T23:36:38.517Z,98735.87
2018-05-29T23:39:06.798Z,98741.71
2018-05-29T23:41:35.075Z,98747.22
2018-05-29T23:44:03.391Z,98748.29
2018-05-29T23:46:31.630Z,98758.62
2018-05-29T23:49:00.856Z,98753.48
2018-05-29T23:51:29.127Z,98746.17
2018-05-29T23:53:57.405Z,98755.62
2018-05-29T23:56:25.682Z,98748.14
2018-05-29T23:58:53.968Z,98751.19
